Hayase Maru — JD2583 — position and weather

sailwx.info

Track history (hours):
 
Tides and Currents Weather Stations Pressure Air Temp Water Temp Dewpoint Dewpoint Depression Visibility Wind Speed Wind Dir Waves Ship Positions

Hayase Maru

Last reported at 2017-Jun-27 10:20 UTC. Time now 2017-Jun-27 10:32 UTC.
Position N 35°22' E 139°53'.

Length 73 m; draft 4 m.

Type: Ship. MMSI: 431000395.

Date/timePositionNaut miles runAvg speedWind from/ knotsBaromVisibWave heightAir tempDewpointWater temp
2017-Jun-27 10:20N 35°22' E 139°53'0 0.0
2017-Jun-27 09:14N 35°22' E 139°53'1 3.7
2017-Jun-27 08:58N 35°22' E 139°52'510.6
2017-Jun-27 08:31N 35°26' E 139°48'612.1
2017-Jun-27 08:00N 35°31' E 139°53'712.3
2017-Jun-27 07:28N 35°37' E 139°57'4 2.3
2017-Jun-27 05:39N 35°40' E 139°56'0 0.0
2017-Jun-27 05:22N 35°40' E 139°56'0 0.0
2017-Jun-27 04:49N 35°40' E 139°56'0 0.0
2017-Jun-27 04:27N 35°40' E 139°56'0 0.0
2017-Jun-27 03:15N 35°40' E 139°56'0 0.0
2017-Jun-27 02:45N 35°40' E 139°56'0 0.0
2017-Jun-26 23:33N 35°40' E 139°56'0 0.0
2017-Jun-26 23:15N 35°40' E 139°56'0 0.0
2017-Jun-26 22:51N 35°40' E 139°56'0 0.0
2017-Jun-26 22:05N 35°40' E 139°56'0 0.4
2017-Jun-26 21:53N 35°40' E 139°56'3 5.0
2017-Jun-26 21:18N 35°38' E 139°58'2 5.3
2017-Jun-26 21:00N 35°40' E 139°59'1 0.1
2017-Jun-26 03:51N 35°41' E 139°59'5 8.1
2017-Jun-26 03:17N 35°36' E 139°60'4 1.0
2017-Jun-25 22:50N 35°37' E 140°05'3 6.0
2017-Jun-25 22:24N 35°35' E 140°03'0 0.0
2017-Jun-25 06:59N 35°35' E 140°03'0 0.1
2017-Jun-25 06:26N 35°35' E 140°03'4 8.2
2017-Jun-25 06:00N 35°33' E 139°60'611.6
2017-Jun-25 05:30N 35°30' E 139°53'611.6
2017-Jun-25 05:00N 35°26' E 139°48'611.6
2017-Jun-25 04:30N 35°21' E 139°45'610.9
2017-Jun-25 03:57N 35°15' E 139°47'510.7
2017-Jun-25 03:30N 35°10' E 139°47'  
2017-Jun-19 12:46N 34°35' E 134°52'410.8
2017-Jun-19 12:26N 34°37' E 134°56'510.7
2017-Jun-19 12:00N 34°37' E 135°01'510.4
2017-Jun-19 11:30N 34°36' E 135°07'611.7
2017-Jun-19 11:00N 34°37' E 135°15'510.0
2017-Jun-19 10:30N 34°42' E 135°15'0 0.9
2017-Jun-19 09:59N 34°42' E 135°15'0 0.0
2017-Jun-19 09:29N 34°42' E 135°15'0 0.0
2017-Jun-19 08:59N 34°42' E 135°15'0 0.0
2017-Jun-19 08:29N 34°42' E 135°15'0 0.0
2017-Jun-19 07:59N 34°42' E 135°15'0 0.0
2017-Jun-19 07:29N 34°42' E 135°15'0 0.0
2017-Jun-19 06:53N 34°42' E 135°15'0 0.0
2017-Jun-19 06:29N 34°42' E 135°15'0 0.0
2017-Jun-19 05:59N 34°42' E 135°15'0 0.0
2017-Jun-19 05:29N 34°42' E 135°15'0 0.0
2017-Jun-19 04:59N 34°42' E 135°15'0 0.0
2017-Jun-19 04:29N 34°42' E 135°15'0 0.0
2017-Jun-19 03:59N 34°42' E 135°15'0 0.0
2017-Jun-19 03:29N 34°42' E 135°15'0 0.0
2017-Jun-19 02:53N 34°42' E 135°15'0 0.0
2017-Jun-19 02:23N 34°42' E 135°15'0 0.0
2017-Jun-19 01:53N 34°42' E 135°15'0 0.0
2017-Jun-19 01:29N 34°42' E 135°15'0 0.0
2017-Jun-19 01:00N 34°42' E 135°15'0 0.0
2017-Jun-19 00:30N 34°42' E 135°15'2 4.5
2017-Jun-19 00:00N 34°40' E 135°15'2 3.0
2017-Jun-18 23:30N 34°39' E 135°15'0 0.0
2017-Jun-18 22:49N 34°39' E 135°15'0 0.1
2017-Jun-18 22:25N 34°39' E 135°15'0 0.1
2017-Jun-18 21:55N 34°39' E 135°15'0 0.0
2017-Jun-18 21:25N 34°39' E 135°15'0 0.1
2017-Jun-18 20:55N 34°39' E 135°15'0 0.0
2017-Jun-18 20:25N 34°39' E 135°15'0 0.0
2017-Jun-18 19:49N 34°39' E 135°15'0 0.1
2017-Jun-18 19:25N 34°39' E 135°15'0 0.0
2017-Jun-18 18:49N 34°39' E 135°15'0 0.0
2017-Jun-18 18:30N 34°39' E 135°15'3 6.0
2017-Jun-18 18:00N 34°36' E 135°12'611.6
2017-Jun-18 17:30N 34°35' E 135°06'4 8.6
2017-Jun-18 17:00N 34°37' E 135°01'5 9.7
2017-Jun-18 16:30N 34°36' E 134°55'10 0.7
2017-Jun-18 03:27N 34°41' E 134°45'712.0
2017-Jun-18 02:52N 34°37' E 134°52'5 9.4
2017-Jun-18 02:22N 34°38' E 134°57'410.6
2017-Jun-18 01:59N 34°37' E 135°02'4 9.1
2017-Jun-18 01:30N 34°34' E 135°05'1411.7
2017-Jun-18 00:21N 34°20' E 135°01'510.5
2017-Jun-17 23:55N 34°16' E 134°59'4 8.9
2017-Jun-17 23:30N 34°13' E 134°60'  
Track history (hours):
 
Tides and Currents Weather Stations Pressure Air Temp Water Temp Dewpoint Dewpoint Depression Visibility Wind Speed Wind Dir Waves Ship Positions

Hayase Maru

Last reported at 2017-Jun-27 10:20 UTC. Time now 2017-Jun-27 10:32 UTC.
Position N 35°22' E 139°53'.

Length 73 m; draft 4 m.

Type: Ship. MMSI: 431000395.

Date/timePositionNaut miles runAvg speedWind from/ knotsBaromVisibWave heightAir tempDewpointWater temp
2017-Jun-27 10:20N 35°22' E 139°53'0 0.0
2017-Jun-27 09:14N 35°22' E 139°53'1 3.7
2017-Jun-27 08:58N 35°22' E 139°52'510.6
2017-Jun-27 08:31N 35°26' E 139°48'612.1
2017-Jun-27 08:00N 35°31' E 139°53'712.3
2017-Jun-27 07:28N 35°37' E 139°57'4 2.3
2017-Jun-27 05:39N 35°40' E 139°56'0 0.0
2017-Jun-27 05:22N 35°40' E 139°56'0 0.0
2017-Jun-27 04:49N 35°40' E 139°56'0 0.0
2017-Jun-27 04:27N 35°40' E 139°56'0 0.0
2017-Jun-27 03:15N 35°40' E 139°56'0 0.0
2017-Jun-27 02:45N 35°40' E 139°56'0 0.0
2017-Jun-26 23:33N 35°40' E 139°56'0 0.0
2017-Jun-26 23:15N 35°40' E 139°56'0 0.0
2017-Jun-26 22:51N 35°40' E 139°56'0 0.0
2017-Jun-26 22:05N 35°40' E 139°56'0 0.4
2017-Jun-26 21:53N 35°40' E 139°56'3 5.0
2017-Jun-26 21:18N 35°38' E 139°58'2 5.3
2017-Jun-26 21:00N 35°40' E 139°59'1 0.1
2017-Jun-26 03:51N 35°41' E 139°59'5 8.1
2017-Jun-26 03:17N 35°36' E 139°60'4 1.0
2017-Jun-25 22:50N 35°37' E 140°05'3 6.0
2017-Jun-25 22:24N 35°35' E 140°03'0 0.0
2017-Jun-25 06:59N 35°35' E 140°03'0 0.1
2017-Jun-25 06:26N 35°35' E 140°03'4 8.2
2017-Jun-25 06:00N 35°33' E 139°60'611.6
2017-Jun-25 05:30N 35°30' E 139°53'611.6
2017-Jun-25 05:00N 35°26' E 139°48'611.6
2017-Jun-25 04:30N 35°21' E 139°45'610.9
2017-Jun-25 03:57N 35°15' E 139°47'510.7
2017-Jun-25 03:30N 35°10' E 139°47'  
2017-Jun-19 12:46N 34°35' E 134°52'410.8
2017-Jun-19 12:26N 34°37' E 134°56'510.7
2017-Jun-19 12:00N 34°37' E 135°01'510.4
2017-Jun-19 11:30N 34°36' E 135°07'611.7
2017-Jun-19 11:00N 34°37' E 135°15'510.0
2017-Jun-19 10:30N 34°42' E 135°15'0 0.9
2017-Jun-19 09:59N 34°42' E 135°15'0 0.0
2017-Jun-19 09:29N 34°42' E 135°15'0 0.0
2017-Jun-19 08:59N 34°42' E 135°15'0 0.0
2017-Jun-19 08:29N 34°42' E 135°15'0 0.0
2017-Jun-19 07:59N 34°42' E 135°15'0 0.0
2017-Jun-19 07:29N 34°42' E 135°15'0 0.0
2017-Jun-19 06:53N 34°42' E 135°15'0 0.0
2017-Jun-19 06:29N 34°42' E 135°15'0 0.0
2017-Jun-19 05:59N 34°42' E 135°15'0 0.0
2017-Jun-19 05:29N 34°42' E 135°15'0 0.0
2017-Jun-19 04:59N 34°42' E 135°15'0 0.0
2017-Jun-19 04:29N 34°42' E 135°15'0 0.0
2017-Jun-19 03:59N 34°42' E 135°15'0 0.0
2017-Jun-19 03:29N 34°42' E 135°15'0 0.0
2017-Jun-19 02:53N 34°42' E 135°15'0 0.0
2017-Jun-19 02:23N 34°42' E 135°15'0 0.0
2017-Jun-19 01:53N 34°42' E 135°15'0 0.0
2017-Jun-19 01:29N 34°42' E 135°15'0 0.0
2017-Jun-19 01:00N 34°42' E 135°15'0 0.0
2017-Jun-19 00:30N 34°42' E 135°15'2 4.5
2017-Jun-19 00:00N 34°40' E 135°15'2 3.0
2017-Jun-18 23:30N 34°39' E 135°15'0 0.0
2017-Jun-18 22:49N 34°39' E 135°15'0 0.1
2017-Jun-18 22:25N 34°39' E 135°15'0 0.1
2017-Jun-18 21:55N 34°39' E 135°15'0 0.0
2017-Jun-18 21:25N 34°39' E 135°15'0 0.1
2017-Jun-18 20:55N 34°39' E 135°15'0 0.0
2017-Jun-18 20:25N 34°39' E 135°15'0 0.0
2017-Jun-18 19:49N 34°39' E 135°15'0 0.1
2017-Jun-18 19:25N 34°39' E 135°15'0 0.0
2017-Jun-18 18:49N 34°39' E 135°15'0 0.0
2017-Jun-18 18:30N 34°39' E 135°15'3 6.0
2017-Jun-18 18:00N 34°36' E 135°12'611.6
2017-Jun-18 17:30N 34°35' E 135°06'4 8.6
2017-Jun-18 17:00N 34°37' E 135°01'5 9.7
2017-Jun-18 16:30N 34°36' E 134°55'10 0.7
2017-Jun-18 03:27N 34°41' E 134°45'712.0
2017-Jun-18 02:52N 34°37' E 134°52'5 9.4
2017-Jun-18 02:22N 34°38' E 134°57'410.6
2017-Jun-18 01:59N 34°37' E 135°02'4 9.1
2017-Jun-18 01:30N 34°34' E 135°05'1411.7
2017-Jun-18 00:21N 34°20' E 135°01'510.5
2017-Jun-17 23:55N 34°16' E 134°59'4 8.9
2017-Jun-17 23:30N 34°13' E 134°60'  

Dump ship's entire track history